sensor_id;sensor_type;location;lat;lon;timestamp;P1;durP1;ratioP1;P2;durP2;ratioP2
49384;SDS011;36795;45.028;38.968;2023-11-19T00:02:28;16.75;;;5.12;;
49384;SDS011;36795;45.028;38.968;2023-11-19T00:05:14;17.00;;;5.65;;
49384;SDS011;36795;45.028;38.968;2023-11-19T00:08:00;21.87;;;5.68;;
49384;SDS011;36795;45.028;38.968;2023-11-19T00:10:47;18.60;;;5.60;;
49384;SDS011;36795;45.028;38.968;2023-11-19T00:13:33;19.60;;;6.18;;
49384;SDS011;36795;45.028;38.968;2023-11-19T00:16:19;20.42;;;6.40;;
49384;SDS011;36795;45.028;38.968;2023-11-19T00:19:05;21.80;;;5.37;;
49384;SDS011;36795;45.028;38.968;2023-11-19T00:21:51;21.02;;;6.60;;
49384;SDS011;36795;45.028;38.968;2023-11-19T00:24:38;18.75;;;5.65;;
49384;SDS011;36795;45.028;38.968;2023-11-19T00:27:24;19.85;;;6.37;;
49384;SDS011;36795;45.028;38.968;2023-11-19T00:30:10;21.05;;;5.95;;
49384;SDS011;36795;45.028;38.968;2023-11-19T00:32:59;18.73;;;6.47;;
49384;SDS011;36795;45.028;38.968;2023-11-19T00:35:44;21.98;;;6.93;;
49384;SDS011;36795;45.028;38.968;2023-11-19T00:38:30;18.92;;;6.07;;
49384;SDS011;36795;45.028;38.968;2023-11-19T00:41:16;21.80;;;6.60;;
49384;SDS011;36795;45.028;38.968;2023-11-19T00:44:02;24.25;;;6.78;;
49384;SDS011;36795;45.028;38.968;2023-11-19T00:46:50;20.20;;;6.30;;
49384;SDS011;36795;45.028;38.968;2023-11-19T00:49:36;19.87;;;6.78;;
49384;SDS011;36795;45.028;38.968;2023-11-19T00:52:22;21.00;;;6.47;;
49384;SDS011;36795;45.028;38.968;2023-11-19T00:55:08;21.15;;;6.40;;
49384;SDS011;36795;45.028;38.968;2023-11-19T00:57:56;26.15;;;7.53;;
49384;SDS011;36795;45.028;38.968;2023-11-19T01:00:43;23.45;;;7.30;;
49384;SDS011;36795;45.028;38.968;2023-11-19T01:03:29;19.87;;;6.75;;
49384;SDS011;36795;45.028;38.968;2023-11-19T01:06:26;21.42;;;7.20;;
49384;SDS011;36795;45.028;38.968;2023-11-19T01:09:13;22.62;;;7.22;;
49384;SDS011;36795;45.028;38.968;2023-11-19T01:12:00;22.35;;;6.53;;
49384;SDS011;36795;45.028;38.968;2023-11-19T01:14:47;20.20;;;7.50;;
49384;SDS011;36795;45.028;38.968;2023-11-19T01:17:33;21.73;;;7.90;;
49384;SDS011;36795;45.028;38.968;2023-11-19T01:20:19;23.00;;;8.10;;
49384;SDS011;36795;45.028;38.968;2023-11-19T01:23:05;21.92;;;7.85;;
49384;SDS011;36795;45.028;38.968;2023-11-19T01:25:51;23.73;;;8.35;;
49384;SDS011;36795;45.028;38.968;2023-11-19T01:28:37;24.48;;;8.43;;
49384;SDS011;36795;45.028;38.968;2023-11-19T01:31:32;25.65;;;8.40;;
49384;SDS011;36795;45.028;38.968;2023-11-19T01:34:19;24.50;;;8.90;;
49384;SDS011;36795;45.028;38.968;2023-11-19T01:37:04;22.37;;;8.18;;
49384;SDS011;36795;45.028;38.968;2023-11-19T01:39:50;23.12;;;8.02;;
49384;SDS011;36795;45.028;38.968;2023-11-19T01:42:39;23.48;;;8.13;;
49384;SDS011;36795;45.028;38.968;2023-11-19T01:45:29;22.50;;;7.43;;
49384;SDS011;36795;45.028;38.968;2023-11-19T01:48:16;25.60;;;7.75;;
49384;SDS011;36795;45.028;38.968;2023-11-19T01:51:02;25.45;;;9.00;;
49384;SDS011;36795;45.028;38.968;2023-11-19T01:53:49;21.40;;;7.78;;
49384;SDS011;36795;45.028;38.968;2023-11-19T01:56:36;22.23;;;7.10;;
49384;SDS011;36795;45.028;38.968;2023-11-19T01:59:25;24.00;;;8.73;;
49384;SDS011;36795;45.028;38.968;2023-11-19T02:02:12;23.42;;;9.15;;
49384;SDS011;36795;45.028;38.968;2023-11-19T02:04:59;23.17;;;9.02;;
49384;SDS011;36795;45.028;38.968;2023-11-19T02:07:45;21.10;;;7.80;;
49384;SDS011;36795;45.028;38.968;2023-11-19T02:10:31;24.10;;;8.77;;
49384;SDS011;36795;45.028;38.968;2023-11-19T02:13:19;19.98;;;6.95;;
49384;SDS011;36795;45.028;38.968;2023-11-19T02:16:05;23.27;;;8.82;;
49384;SDS011;36795;45.028;38.968;2023-11-19T02:18:51;22.80;;;8.25;;
49384;SDS011;36795;45.028;38.968;2023-11-19T02:21:38;26.50;;;9.35;;
49384;SDS011;36795;45.028;38.968;2023-11-19T02:24:24;21.33;;;7.57;;
49384;SDS011;36795;45.028;38.968;2023-11-19T02:27:23;22.80;;;7.70;;
49384;SDS011;36795;45.028;38.968;2023-11-19T02:30:29;21.37;;;7.87;;
49384;SDS011;36795;45.028;38.968;2023-11-19T02:33:17;22.35;;;8.38;;
49384;SDS011;36795;45.028;38.968;2023-11-19T02:36:04;21.23;;;7.60;;
49384;SDS011;36795;45.028;38.968;2023-11-19T02:38:51;22.50;;;8.32;;
49384;SDS011;36795;45.028;38.968;2023-11-19T02:41:38;20.25;;;7.25;;
49384;SDS011;36795;45.028;38.968;2023-11-19T02:44:24;21.08;;;7.43;;
49384;SDS011;36795;45.028;38.968;2023-11-19T02:47:13;22.02;;;7.25;;
49384;SDS011;36795;45.028;38.968;2023-11-19T02:49:59;20.55;;;7.60;;
49384;SDS011;36795;45.028;38.968;2023-11-19T02:52:46;22.30;;;7.55;;
49384;SDS011;36795;45.028;38.968;2023-11-19T02:55:31;22.25;;;7.95;;
49384;SDS011;36795;45.028;38.968;2023-11-19T02:58:23;22.62;;;7.30;;
49384;SDS011;36795;45.028;38.968;2023-11-19T03:01:09;21.75;;;7.32;;
49384;SDS011;36795;45.028;38.968;2023-11-19T03:04:05;20.70;;;6.57;;
49384;SDS011;36795;45.028;38.968;2023-11-19T03:06:51;20.62;;;6.57;;
49384;SDS011;36795;45.028;38.968;2023-11-19T03:09:38;18.55;;;5.70;;
49384;SDS011;36795;45.028;38.968;2023-11-19T03:12:25;20.37;;;6.15;;
49384;SDS011;36795;45.028;38.968;2023-11-19T03:15:12;20.83;;;6.47;;
49384;SDS011;36795;45.028;38.968;2023-11-19T03:17:57;20.33;;;6.07;;
49384;SDS011;36795;45.028;38.968;2023-11-19T03:20:44;17.52;;;5.50;;
49384;SDS011;36795;45.028;38.968;2023-11-19T03:23:31;18.27;;;5.93;;
49384;SDS011;36795;45.028;38.968;2023-11-19T03:26:17;17.25;;;4.82;;
49384;SDS011;36795;45.028;38.968;2023-11-19T03:29:03;18.40;;;5.07;;
49384;SDS011;36795;45.028;38.968;2023-11-19T03:31:50;18.77;;;4.62;;
49384;SDS011;36795;45.028;38.968;2023-11-19T03:34:36;14.05;;;4.15;;
49384;SDS011;36795;45.028;38.968;2023-11-19T03:37:22;15.25;;;4.22;;
49384;SDS011;36795;45.028;38.968;2023-11-19T03:40:08;14.30;;;3.80;;
49384;SDS011;36795;45.028;38.968;2023-11-19T03:42:56;15.95;;;4.00;;
49384;SDS011;36795;45.028;38.968;2023-11-19T03:45:43;12.05;;;3.42;;
49384;SDS011;36795;45.028;38.968;2023-11-19T03:48:29;14.77;;;4.20;;
49384;SDS011;36795;45.028;38.968;2023-11-19T03:51:15;10.20;;;3.03;;
49384;SDS011;36795;45.028;38.968;2023-11-19T03:54:03;15.20;;;3.40;;
49384;SDS011;36795;45.028;38.968;2023-11-19T03:56:49;15.43;;;4.00;;
49384;SDS011;36795;45.028;38.968;2023-11-19T03:59:35;8.60;;;2.83;;
49384;SDS011;36795;45.028;38.968;2023-11-19T04:02:21;9.00;;;2.85;;
49384;SDS011;36795;45.028;38.968;2023-11-19T04:05:07;6.00;;;1.80;;
49384;SDS011;36795;45.028;38.968;2023-11-19T04:07:54;12.45;;;2.60;;
49384;SDS011;36795;45.028;38.968;2023-11-19T04:10:41;14.20;;;3.25;;
49384;SDS011;36795;45.028;38.968;2023-11-19T04:13:26;5.82;;;2.35;;
49384;SDS011;36795;45.028;38.968;2023-11-19T04:16:13;7.00;;;2.30;;
49384;SDS011;36795;45.028;38.968;2023-11-19T04:19:00;7.75;;;2.10;;
49384;SDS011;36795;45.028;38.968;2023-11-19T04:21:46;7.93;;;2.25;;
49384;SDS011;36795;45.028;38.968;2023-11-19T04:24:32;5.37;;;2.00;;
49384;SDS011;36795;45.028;38.968;2023-11-19T04:27:18;6.78;;;2.05;;
49384;SDS011;36795;45.028;38.968;2023-11-19T04:30:04;7.35;;;2.10;;
49384;SDS011;36795;45.028;38.968;2023-11-19T04:32:55;6.62;;;2.00;;
49384;SDS011;36795;45.028;38.968;2023-11-19T04:35:41;9.38;;;1.87;;
49384;SDS011;36795;45.028;38.968;2023-11-19T04:38:27;6.10;;;1.67;;
49384;SDS011;36795;45.028;38.968;2023-11-19T04:41:13;7.50;;;1.90;;
49384;SDS011;36795;45.028;38.968;2023-11-19T04:44:00;3.90;;;1.70;;
49384;SDS011;36795;45.028;38.968;2023-11-19T04:46:46;5.57;;;2.05;;
49384;SDS011;36795;45.028;38.968;2023-11-19T04:49:32;5.75;;;1.90;;
49384;SDS011;36795;45.028;38.968;2023-11-19T04:52:18;5.45;;;1.80;;
49384;SDS011;36795;45.028;38.968;2023-11-19T04:55:04;6.80;;;1.70;;
49384;SDS011;36795;45.028;38.968;2023-11-19T04:57:50;5.97;;;1.95;;
49384;SDS011;36795;45.028;38.968;2023-11-19T05:00:39;6.00;;;2.00;;
49384;SDS011;36795;45.028;38.968;2023-11-19T05:03:24;6.55;;;1.77;;
49384;SDS011;36795;45.028;38.968;2023-11-19T05:06:12;6.65;;;1.92;;
49384;SDS011;36795;45.028;38.968;2023-11-19T05:08:59;4.40;;;1.80;;
49384;SDS011;36795;45.028;38.968;2023-11-19T05:12:03;5.10;;;1.67;;
49384;SDS011;36795;45.028;38.968;2023-11-19T05:14:49;6.85;;;2.00;;
49384;SDS011;36795;45.028;38.968;2023-11-19T05:17:36;6.70;;;1.90;;
49384;SDS011;36795;45.028;38.968;2023-11-19T05:20:22;10.00;;;2.00;;
49384;SDS011;36795;45.028;38.968;2023-11-19T05:23:08;5.80;;;1.58;;
49384;SDS011;36795;45.028;38.968;2023-11-19T05:25:54;8.38;;;1.92;;
49384;SDS011;36795;45.028;38.968;2023-11-19T05:28:40;6.60;;;1.92;;
49384;SDS011;36795;45.028;38.968;2023-11-19T05:31:26;5.15;;;1.77;;
49384;SDS011;36795;45.028;38.968;2023-11-19T05:34:12;5.75;;;2.00;;
49384;SDS011;36795;45.028;38.968;2023-11-19T05:37:00;8.77;;;3.03;;
49384;SDS011;36795;45.028;38.968;2023-11-19T05:39:46;10.05;;;2.33;;
49384;SDS011;36795;45.028;38.968;2023-11-19T05:42:31;6.37;;;1.90;;
49384;SDS011;36795;45.028;38.968;2023-11-19T05:45:18;8.27;;;2.10;;
49384;SDS011;36795;45.028;38.968;2023-11-19T05:48:04;7.18;;;2.28;;
49384;SDS011;36795;45.028;38.968;2023-11-19T05:50:50;6.65;;;2.28;;
49384;SDS011;36795;45.028;38.968;2023-11-19T05:53:36;7.32;;;1.95;;
49384;SDS011;36795;45.028;38.968;2023-11-19T05:56:22;6.20;;;2.15;;
49384;SDS011;36795;45.028;38.968;2023-11-19T05:59:08;7.05;;;2.10;;
49384;SDS011;36795;45.028;38.968;2023-11-19T06:02:00;4.50;;;1.90;;
49384;SDS011;36795;45.028;38.968;2023-11-19T06:04:46;9.70;;;2.17;;
49384;SDS011;36795;45.028;38.968;2023-11-19T06:07:33;9.23;;;2.12;;
49384;SDS011;36795;45.028;38.968;2023-11-19T06:10:20;11.18;;;2.60;;
49384;SDS011;36795;45.028;38.968;2023-11-19T06:13:06;6.85;;;2.35;;
49384;SDS011;36795;45.028;38.968;2023-11-19T06:15:52;6.78;;;2.00;;
49384;SDS011;36795;45.028;38.968;2023-11-19T06:18:38;11.18;;;2.37;;
49384;SDS011;36795;45.028;38.968;2023-11-19T06:21:26;6.35;;;2.30;;
49384;SDS011;36795;45.028;38.968;2023-11-19T06:24:11;7.75;;;2.53;;
49384;SDS011;36795;45.028;38.968;2023-11-19T06:26:57;11.35;;;2.92;;
49384;SDS011;36795;45.028;38.968;2023-11-19T06:29:43;8.68;;;2.80;;
49384;SDS011;36795;45.028;38.968;2023-11-19T06:32:30;10.55;;;2.85;;
49384;SDS011;36795;45.028;38.968;2023-11-19T06:35:16;6.32;;;2.33;;
49384;SDS011;36795;45.028;38.968;2023-11-19T06:38:02;8.00;;;2.33;;
49384;SDS011;36795;45.028;38.968;2023-11-19T06:40:51;3.97;;;1.70;;
49384;SDS011;36795;45.028;38.968;2023-11-19T06:43:37;8.88;;;2.50;;
49384;SDS011;36795;45.028;38.968;2023-11-19T06:46:24;9.30;;;2.28;;
49384;SDS011;36795;45.028;38.968;2023-11-19T06:49:10;8.52;;;2.58;;
49384;SDS011;36795;45.028;38.968;2023-11-19T06:51:56;9.32;;;2.50;;
49384;SDS011;36795;45.028;38.968;2023-11-19T06:54:42;9.43;;;2.60;;
49384;SDS011;36795;45.028;38.968;2023-11-19T06:57:27;14.10;;;3.40;;
49384;SDS011;36795;45.028;38.968;2023-11-19T07:00:14;13.05;;;3.70;;
49384;SDS011;36795;45.028;38.968;2023-11-19T07:03:01;9.82;;;2.90;;
49384;SDS011;36795;45.028;38.968;2023-11-19T07:05:47;13.52;;;3.60;;
49384;SDS011;36795;45.028;38.968;2023-11-19T07:08:33;10.68;;;2.70;;
49384;SDS011;36795;45.028;38.968;2023-11-19T07:11:19;9.48;;;2.60;;
49384;SDS011;36795;45.028;38.968;2023-11-19T07:14:05;11.27;;;2.97;;
49384;SDS011;36795;45.028;38.968;2023-11-19T07:16:53;13.32;;;3.12;;
49384;SDS011;36795;45.028;38.968;2023-11-19T07:19:40;7.70;;;2.42;;
49384;SDS011;36795;45.028;38.968;2023-11-19T07:22:26;14.77;;;2.67;;
49384;SDS011;36795;45.028;38.968;2023-11-19T07:25:14;10.85;;;2.60;;
49384;SDS011;36795;45.028;38.968;2023-11-19T07:28:00;7.72;;;2.20;;
49384;SDS011;36795;45.028;38.968;2023-11-19T07:30:49;6.57;;;2.05;;
49384;SDS011;36795;45.028;38.968;2023-11-19T07:33:37;15.85;;;5.78;;
49384;SDS011;36795;45.028;38.968;2023-11-19T07:36:24;7.32;;;2.97;;
49384;SDS011;36795;45.028;38.968;2023-11-19T07:39:10;8.90;;;2.60;;
49384;SDS011;36795;45.028;38.968;2023-11-19T07:41:56;9.77;;;2.70;;
49384;SDS011;36795;45.028;38.968;2023-11-19T07:44:43;9.45;;;3.00;;
49384;SDS011;36795;45.028;38.968;2023-11-19T07:47:29;12.77;;;3.00;;
49384;SDS011;36795;45.028;38.968;2023-11-19T07:50:15;12.90;;;3.25;;
49384;SDS011;36795;45.028;38.968;2023-11-19T07:53:04;11.57;;;2.80;;
49384;SDS011;36795;45.028;38.968;2023-11-19T07:55:50;10.82;;;2.80;;
49384;SDS011;36795;45.028;38.968;2023-11-19T07:58:36;12.37;;;2.95;;
49384;SDS011;36795;45.028;38.968;2023-11-19T08:01:22;15.18;;;3.80;;
49384;SDS011;36795;45.028;38.968;2023-11-19T08:04:08;11.55;;;3.08;;
49384;SDS011;36795;45.028;38.968;2023-11-19T08:06:55;11.82;;;3.22;;
49384;SDS011;36795;45.028;38.968;2023-11-19T08:09:41;14.75;;;3.72;;
49384;SDS011;36795;45.028;38.968;2023-11-19T08:12:27;11.68;;;3.33;;
49384;SDS011;36795;45.028;38.968;2023-11-19T08:15:13;13.07;;;3.30;;
49384;SDS011;36795;45.028;38.968;2023-11-19T08:18:00;18.65;;;4.82;;
49384;SDS011;36795;45.028;38.968;2023-11-19T08:20:47;14.23;;;3.78;;
49384;SDS011;36795;45.028;38.968;2023-11-19T08:23:37;17.87;;;3.80;;
49384;SDS011;36795;45.028;38.968;2023-11-19T08:26:24;16.80;;;3.70;;
49384;SDS011;36795;45.028;38.968;2023-11-19T08:29:09;11.73;;;3.00;;
49384;SDS011;36795;45.028;38.968;2023-11-19T08:31:56;13.32;;;3.17;;
49384;SDS011;36795;45.028;38.968;2023-11-19T08:34:41;13.35;;;2.87;;
49384;SDS011;36795;45.028;38.968;2023-11-19T08:37:27;12.60;;;3.10;;
49384;SDS011;36795;45.028;38.968;2023-11-19T08:40:13;12.85;;;2.92;;
49384;SDS011;36795;45.028;38.968;2023-11-19T08:43:00;11.48;;;2.58;;
49384;SDS011;36795;45.028;38.968;2023-11-19T08:45:46;11.00;;;2.33;;
49384;SDS011;36795;45.028;38.968;2023-11-19T08:48:32;7.97;;;2.35;;
49384;SDS011;36795;45.028;38.968;2023-11-19T08:51:18;11.70;;;2.40;;
49384;SDS011;36795;45.028;38.968;2023-11-19T08:54:04;9.05;;;2.40;;
49384;SDS011;36795;45.028;38.968;2023-11-19T08:56:50;20.83;;;5.18;;
49384;SDS011;36795;45.028;38.968;2023-11-19T08:59:36;11.75;;;2.97;;
49384;SDS011;36795;45.028;38.968;2023-11-19T09:02:23;7.90;;;2.65;;
49384;SDS011;36795;45.028;38.968;2023-11-19T09:05:09;6.50;;;2.40;;
49384;SDS011;36795;45.028;38.968;2023-11-19T09:07:55;12.35;;;2.72;;
49384;SDS011;36795;45.028;38.968;2023-11-19T09:10:41;9.63;;;2.80;;
49384;SDS011;36795;45.028;38.968;2023-11-19T09:13:26;11.65;;;2.97;;
49384;SDS011;36795;45.028;38.968;2023-11-19T09:16:13;8.35;;;2.78;;
49384;SDS011;36795;45.028;38.968;2023-11-19T09:18:59;15.02;;;3.90;;
49384;SDS011;36795;45.028;38.968;2023-11-19T09:21:47;11.35;;;3.47;;
49384;SDS011;36795;45.028;38.968;2023-11-19T09:24:34;11.68;;;3.00;;
49384;SDS011;36795;45.028;38.968;2023-11-19T09:27:20;10.95;;;3.42;;
49384;SDS011;36795;45.028;38.968;2023-11-19T09:30:06;12.55;;;2.80;;
49384;SDS011;36795;45.028;38.968;2023-11-19T09:32:53;12.05;;;3.85;;
49384;SDS011;36795;45.028;38.968;2023-11-19T09:35:38;6.93;;;2.70;;
49384;SDS011;36795;45.028;38.968;2023-11-19T09:38:24;20.50;;;6.12;;
49384;SDS011;36795;45.028;38.968;2023-11-19T09:41:10;9.23;;;3.10;;
49384;SDS011;36795;45.028;38.968;2023-11-19T09:43:58;13.23;;;3.90;;
49384;SDS011;36795;45.028;38.968;2023-11-19T09:46:44;12.50;;;3.42;;
49384;SDS011;36795;45.028;38.968;2023-11-19T09:49:31;21.20;;;5.87;;
49384;SDS011;36795;45.028;38.968;2023-11-19T09:52:18;17.73;;;5.37;;
49384;SDS011;36795;45.028;38.968;2023-11-19T09:55:05;20.35;;;5.62;;
49384;SDS011;36795;45.028;38.968;2023-11-19T09:57:52;19.95;;;5.05;;
49384;SDS011;36795;45.028;38.968;2023-11-19T10:00:39;18.08;;;4.80;;
49384;SDS011;36795;45.028;38.968;2023-11-19T10:03:26;16.02;;;4.15;;
49384;SDS011;36795;45.028;38.968;2023-11-19T10:06:17;16.15;;;3.83;;
49384;SDS011;36795;45.028;38.968;2023-11-19T10:09:04;8.43;;;2.70;;
49384;SDS011;36795;45.028;38.968;2023-11-19T10:11:50;16.12;;;4.47;;
49384;SDS011;36795;45.028;38.968;2023-11-19T10:14:36;10.13;;;2.92;;
49384;SDS011;36795;45.028;38.968;2023-11-19T10:17:33;11.43;;;2.95;;
49384;SDS011;36795;45.028;38.968;2023-11-19T10:20:20;9.98;;;2.90;;
49384;SDS011;36795;45.028;38.968;2023-11-19T10:23:06;14.13;;;3.85;;
49384;SDS011;36795;45.028;38.968;2023-11-19T10:25:53;11.52;;;2.80;;
49384;SDS011;36795;45.028;38.968;2023-11-19T10:28:39;9.38;;;2.75;;
49384;SDS011;36795;45.028;38.968;2023-11-19T10:31:31;13.80;;;3.67;;
49384;SDS011;36795;45.028;38.968;2023-11-19T10:34:26;16.15;;;3.90;;
49384;SDS011;36795;45.028;38.968;2023-11-19T10:37:28;12.15;;;3.20;;
49384;SDS011;36795;45.028;38.968;2023-11-19T10:40:17;19.83;;;5.75;;
49384;SDS011;36795;45.028;38.968;2023-11-19T10:43:03;11.70;;;2.80;;
49384;SDS011;36795;45.028;38.968;2023-11-19T10:45:49;13.43;;;3.17;;
49384;SDS011;36795;45.028;38.968;2023-11-19T10:48:36;9.98;;;2.95;;
49384;SDS011;36795;45.028;38.968;2023-11-19T10:51:21;11.00;;;3.10;;
49384;SDS011;36795;45.028;38.968;2023-11-19T10:54:09;15.82;;;4.37;;
49384;SDS011;36795;45.028;38.968;2023-11-19T10:56:58;15.32;;;4.00;;
49384;SDS011;36795;45.028;38.968;2023-11-19T10:59:46;20.17;;;5.80;;
49384;SDS011;36795;45.028;38.968;2023-11-19T11:02:35;15.38;;;4.55;;
49384;SDS011;36795;45.028;38.968;2023-11-19T11:05:26;14.45;;;4.25;;
49384;SDS011;36795;45.028;38.968;2023-11-19T11:08:11;15.10;;;4.03;;
49384;SDS011;36795;45.028;38.968;2023-11-19T11:10:59;12.30;;;3.65;;
49384;SDS011;36795;45.028;38.968;2023-11-19T11:13:46;16.42;;;4.50;;
49384;SDS011;36795;45.028;38.968;2023-11-19T11:16:35;15.32;;;4.40;;
49384;SDS011;36795;45.028;38.968;2023-11-19T11:19:22;17.23;;;4.70;;
49384;SDS011;36795;45.028;38.968;2023-11-19T11:22:09;15.98;;;4.53;;
49384;SDS011;36795;45.028;38.968;2023-11-19T11:28:14;14.73;;;4.03;;
49384;SDS011;36795;45.028;38.968;2023-11-19T11:31:23;14.35;;;4.40;;
49384;SDS011;36795;45.028;38.968;2023-11-19T11:40:20;16.08;;;4.47;;
49384;SDS011;36795;45.028;38.968;2023-11-19T11:49:22;16.33;;;4.57;;
49384;SDS011;36795;45.028;38.968;2023-11-19T11:52:11;21.15;;;5.82;;
49384;SDS011;36795;45.028;38.968;2023-11-19T11:55:06;20.27;;;4.78;;
49384;SDS011;36795;45.028;38.968;2023-11-19T11:57:54;18.37;;;4.70;;
49384;SDS011;36795;45.028;38.968;2023-11-19T12:00:40;19.00;;;4.90;;
49384;SDS011;36795;45.028;38.968;2023-11-19T12:03:27;18.80;;;4.80;;
49384;SDS011;36795;45.028;38.968;2023-11-19T12:06:15;21.05;;;6.03;;
49384;SDS011;36795;45.028;38.968;2023-11-19T12:09:01;18.73;;;5.37;;
49384;SDS011;36795;45.028;38.968;2023-11-19T12:11:48;17.85;;;5.03;;
49384;SDS011;36795;45.028;38.968;2023-11-19T12:17:43;21.52;;;6.45;;
49384;SDS011;36795;45.028;38.968;2023-11-19T12:20:36;19.35;;;5.32;;
49384;SDS011;36795;45.028;38.968;2023-11-19T12:23:24;21.77;;;5.82;;
49384;SDS011;36795;45.028;38.968;2023-11-19T12:29:22;18.80;;;5.22;;
49384;SDS011;36795;45.028;38.968;2023-11-19T12:32:08;19.27;;;6.00;;
49384;SDS011;36795;45.028;38.968;2023-11-19T12:34:54;18.92;;;5.87;;
49384;SDS011;36795;45.028;38.968;2023-11-19T12:37:44;21.83;;;6.20;;
49384;SDS011;36795;45.028;38.968;2023-11-19T12:40:31;20.00;;;5.75;;
49384;SDS011;36795;45.028;38.968;2023-11-19T12:43:21;18.15;;;5.00;;
49384;SDS011;36795;45.028;38.968;2023-11-19T12:46:17;20.20;;;5.60;;
49384;SDS011;36795;45.028;38.968;2023-11-19T12:49:08;18.35;;;5.20;;
49384;SDS011;36795;45.028;38.968;2023-11-19T12:51:56;18.85;;;5.55;;
49384;SDS011;36795;45.028;38.968;2023-11-19T12:54:43;21.77;;;5.85;;
49384;SDS011;36795;45.028;38.968;2023-11-19T12:57:36;19.25;;;5.53;;
49384;SDS011;36795;45.028;38.968;2023-11-19T13:00:24;15.40;;;4.50;;
49384;SDS011;36795;45.028;38.968;2023-11-19T13:03:11;20.45;;;4.40;;
49384;SDS011;36795;45.028;38.968;2023-11-19T13:08:54;18.75;;;5.28;;
49384;SDS011;36795;45.028;38.968;2023-11-19T13:11:40;16.10;;;4.65;;
49384;SDS011;36795;45.028;38.968;2023-11-19T13:14:36;15.65;;;4.53;;
49384;SDS011;36795;45.028;38.968;2023-11-19T13:17:23;15.98;;;4.10;;
49384;SDS011;36795;45.028;38.968;2023-11-19T13:20:09;16.55;;;4.03;;
49384;SDS011;36795;45.028;38.968;2023-11-19T13:22:56;17.02;;;4.95;;
49384;SDS011;36795;45.028;38.968;2023-11-19T13:25:43;18.98;;;6.35;;
49384;SDS011;36795;45.028;38.968;2023-11-19T13:28:31;21.23;;;6.68;;
49384;SDS011;36795;45.028;38.968;2023-11-19T13:31:17;19.65;;;6.62;;
49384;SDS011;36795;45.028;38.968;2023-11-19T13:34:03;22.58;;;7.78;;
49384;SDS011;36795;45.028;38.968;2023-11-19T13:36:50;22.02;;;6.68;;
49384;SDS011;36795;45.028;38.968;2023-11-19T13:39:41;18.33;;;4.90;;
49384;SDS011;36795;45.028;38.968;2023-11-19T13:42:27;18.52;;;4.30;;
49384;SDS011;36795;45.028;38.968;2023-11-19T13:45:14;16.85;;;4.45;;
49384;SDS011;36795;45.028;38.968;2023-11-19T13:48:00;17.45;;;5.35;;
49384;SDS011;36795;45.028;38.968;2023-11-19T13:50:46;17.98;;;5.40;;
49384;SDS011;36795;45.028;38.968;2023-11-19T13:53:33;18.30;;;5.28;;
49384;SDS011;36795;45.028;38.968;2023-11-19T13:56:19;19.77;;;6.22;;
49384;SDS011;36795;45.028;38.968;2023-11-19T13:59:06;18.50;;;4.87;;
49384;SDS011;36795;45.028;38.968;2023-11-19T14:01:54;18.60;;;5.10;;
49384;SDS011;36795;45.028;38.968;2023-11-19T14:04:40;18.52;;;5.15;;
49384;SDS011;36795;45.028;38.968;2023-11-19T14:07:26;21.27;;;5.57;;
49384;SDS011;36795;45.028;38.968;2023-11-19T14:10:13;18.67;;;5.28;;
49384;SDS011;36795;45.028;38.968;2023-11-19T14:12:59;21.95;;;5.35;;
49384;SDS011;36795;45.028;38.968;2023-11-19T14:15:46;19.15;;;6.00;;
49384;SDS011;36795;45.028;38.968;2023-11-19T14:18:33;19.98;;;5.60;;
49384;SDS011;36795;45.028;38.968;2023-11-19T14:21:20;19.75;;;5.45;;
49384;SDS011;36795;45.028;38.968;2023-11-19T14:24:06;16.50;;;4.45;;
49384;SDS011;36795;45.028;38.968;2023-11-19T14:26:53;16.48;;;4.53;;
49384;SDS011;36795;45.028;38.968;2023-11-19T14:29:39;19.45;;;5.28;;
49384;SDS011;36795;45.028;38.968;2023-11-19T14:32:25;16.42;;;4.90;;
49384;SDS011;36795;45.028;38.968;2023-11-19T14:35:11;16.73;;;4.43;;
49384;SDS011;36795;45.028;38.968;2023-11-19T14:37:58;19.50;;;4.78;;
49384;SDS011;36795;45.028;38.968;2023-11-19T14:40:44;18.73;;;5.05;;
49384;SDS011;36795;45.028;38.968;2023-11-19T14:43:31;21.92;;;6.45;;
49384;SDS011;36795;45.028;38.968;2023-11-19T14:46:17;18.20;;;5.62;;
49384;SDS011;36795;45.028;38.968;2023-11-19T14:49:03;20.90;;;7.03;;
49384;SDS011;36795;45.028;38.968;2023-11-19T14:51:50;22.17;;;7.45;;
49384;SDS011;36795;45.028;38.968;2023-11-19T14:54:37;21.77;;;6.95;;
49384;SDS011;36795;45.028;38.968;2023-11-19T14:57:25;21.25;;;6.78;;
49384;SDS011;36795;45.028;38.968;2023-11-19T15:00:13;21.12;;;6.32;;
49384;SDS011;36795;45.028;38.968;2023-11-19T15:03:00;17.23;;;5.10;;
49384;SDS011;36795;45.028;38.968;2023-11-19T15:05:46;18.52;;;5.80;;
49384;SDS011;36795;45.028;38.968;2023-11-19T15:08:32;19.48;;;5.07;;
49384;SDS011;36795;45.028;38.968;2023-11-19T15:11:19;14.20;;;3.90;;
49384;SDS011;36795;45.028;38.968;2023-11-19T15:14:06;16.27;;;4.87;;
49384;SDS011;36795;45.028;38.968;2023-11-19T15:16:52;19.00;;;5.70;;
49384;SDS011;36795;45.028;38.968;2023-11-19T15:19:38;18.25;;;4.75;;
49384;SDS011;36795;45.028;38.968;2023-11-19T15:22:25;16.52;;;4.93;;
49384;SDS011;36795;45.028;38.968;2023-11-19T15:25:12;14.65;;;3.97;;
49384;SDS011;36795;45.028;38.968;2023-11-19T15:27:59;14.07;;;3.85;;
49384;SDS011;36795;45.028;38.968;2023-11-19T15:30:45;14.73;;;4.20;;
49384;SDS011;36795;45.028;38.968;2023-11-19T15:33:31;14.85;;;4.07;;
49384;SDS011;36795;45.028;38.968;2023-11-19T15:36:17;14.77;;;4.10;;
49384;SDS011;36795;45.028;38.968;2023-11-19T15:39:04;13.38;;;3.83;;
49384;SDS011;36795;45.028;38.968;2023-11-19T15:41:51;13.80;;;4.20;;
49384;SDS011;36795;45.028;38.968;2023-11-19T15:44:37;17.60;;;4.28;;
49384;SDS011;36795;45.028;38.968;2023-11-19T15:47:24;14.80;;;3.78;;
49384;SDS011;36795;45.028;38.968;2023-11-19T15:50:11;13.57;;;4.05;;
49384;SDS011;36795;45.028;38.968;2023-11-19T15:52:56;16.15;;;4.22;;
49384;SDS011;36795;45.028;38.968;2023-11-19T15:55:44;13.70;;;3.80;;
49384;SDS011;36795;45.028;38.968;2023-11-19T15:58:30;15.23;;;4.72;;
49384;SDS011;36795;45.028;38.968;2023-11-19T16:01:18;14.30;;;3.95;;
49384;SDS011;36795;45.028;38.968;2023-11-19T16:04:04;13.70;;;4.20;;
49384;SDS011;36795;45.028;38.968;2023-11-19T16:06:50;15.73;;;4.20;;
49384;SDS011;36795;45.028;38.968;2023-11-19T16:09:37;12.32;;;3.60;;
49384;SDS011;36795;45.028;38.968;2023-11-19T16:12:23;13.10;;;3.47;;
49384;SDS011;36795;45.028;38.968;2023-11-19T16:15:10;14.05;;;3.85;;
49384;SDS011;36795;45.028;38.968;2023-11-19T16:17:58;15.60;;;4.57;;
49384;SDS011;36795;45.028;38.968;2023-11-19T16:20:44;13.43;;;3.80;;
49384;SDS011;36795;45.028;38.968;2023-11-19T16:23:30;12.80;;;3.50;;
49384;SDS011;36795;45.028;38.968;2023-11-19T16:26:16;16.02;;;4.30;;
49384;SDS011;36795;45.028;38.968;2023-11-19T16:29:03;12.77;;;3.62;;
49384;SDS011;36795;45.028;38.968;2023-11-19T16:31:49;14.20;;;4.00;;
49384;SDS011;36795;45.028;38.968;2023-11-19T16:34:36;15.45;;;4.87;;
49384;SDS011;36795;45.028;38.968;2023-11-19T16:37:28;15.40;;;4.45;;
49384;SDS011;36795;45.028;38.968;2023-11-19T16:40:14;16.25;;;3.72;;
49384;SDS011;36795;45.028;38.968;2023-11-19T16:43:02;15.85;;;3.75;;
49384;SDS011;36795;45.028;38.968;2023-11-19T16:45:48;16.02;;;4.43;;